Time;durP1;ratioP1;P1;durP2;ratioP2;P2;SDS_P1;SDS_P2;PMS_P1;PMS_P2;Temp;Humidity;BMP_temperature;BMP_pressure;BME280_temperature;BME280_humidity;BME280_pressure;Samples;Min_cycle;Max_cycle;Signal;HPM_P1;HPM_P2
2024/03/03 00:00:23;;;;;;;;;3.75;3.75;;;;;;;;5090362;27;10140;-85
2024/03/03 00:02:51;;;;;;;;;2.00;2.00;;;;;;;;5073925;28;10448;-84
2024/03/03 00:05:19;;;;;;;;;3.00;3.00;;;;;;;;5090998;28;10318;-83
2024/03/03 00:07:47;;;;;;;;;2.00;2.00;;;;;;;;5090127;28;10292;-83
2024/03/03 00:10:14;;;;;;;;;3.00;3.00;;;;;;;;5090431;28;10224;-84
2024/03/03 00:12:42;;;;;;;;;4.00;4.00;;;;;;;;5089446;28;10400;-84
2024/03/03 00:15:11;;;;;;;;;7.00;4.00;;;;;;;;5090508;28;10358;-83
2024/03/03 00:17:41;;;;;;;;;5.75;5.75;;;;;;;;5090476;28;10463;-86
2024/03/03 00:20:09;;;;;;;;;8.50;7.25;;;;;;;;5091335;28;11207;-85
2024/03/03 00:22:40;;;;;;;;;9.50;9.00;;;;;;;;5090290;28;10693;-84
2024/03/03 00:25:08;;;;;;;;;13.25;11.00;;;;;;;;5090531;28;10735;-85
2024/03/03 00:27:36;;;;;;;;;9.00;7.00;;;;;;;;5090738;28;10765;-83
2024/03/03 00:30:04;;;;;;;;;7.25;5.00;;;;;;;;5090011;28;10896;-85
2024/03/03 00:32:31;;;;;;;;;5.50;2.50;;;;;;;;5097341;28;10817;-83
2024/03/03 00:35:00;;;;;;;;;4.00;2.25;;;;;;;;5106056;28;10706;-83
2024/03/03 00:37:29;;;;;;;;;3.25;3.25;;;;;;;;5090081;28;10563;-82
2024/03/03 00:39:58;;;;;;;;;3.00;3.00;;;;;;;;5089487;28;10534;-84
2024/03/03 00:42:26;;;;;;;;;3.00;3.00;;;;;;;;5089960;28;10756;-83
2024/03/03 00:44:53;;;;;;;;;2.00;2.00;;;;;;;;5091463;28;10475;-83
2024/03/03 00:47:20;;;;;;;;;3.00;3.00;;;;;;;;5100594;28;10297;-84
2024/03/03 00:49:48;;;;;;;;;3.00;3.00;;;;;;;;5089758;28;10492;-83
2024/03/03 00:52:15;;;;;;;;;3.75;3.75;;;;;;;;5090235;28;10524;-83
2024/03/03 00:54:42;;;;;;;;;3.75;3.75;;;;;;;;5089458;28;11212;-84
2024/03/03 00:57:13;;;;;;;;;4.00;2.75;;;;;;;;5089989;28;10536;-84
2024/03/03 00:59:41;;;;;;;;;3.00;3.00;;;;;;;;5102405;28;10480;-84
2024/03/03 01:02:08;;;;;;;;;5.50;4.00;;;;;;;;5089690;28;10539;-84
2024/03/03 01:04:35;;;;;;;;;3.00;3.00;;;;;;;;5091014;28;10556;-83
2024/03/03 01:07:05;;;;;;;;;2.00;2.00;;;;;;;;5104984;28;10354;-83
2024/03/03 01:09:33;;;;;;;;;2.00;2.00;;;;;;;;5096879;28;10548;-84
2024/03/03 01:12:00;;;;;;;;;2.00;2.00;;;;;;;;5097428;28;10528;-83
2024/03/03 01:14:29;;;;;;;;;3.00;3.00;;;;;;;;5093151;28;10663;-83
2024/03/03 01:16:56;;;;;;;;;2.00;2.00;;;;;;;;5096443;28;10503;-83
2024/03/03 01:19:24;;;;;;;;;4.75;2.75;;;;;;;;5095808;28;10597;-84
2024/03/03 01:21:51;;;;;;;;;3.00;3.00;;;;;;;;5095970;28;10717;-83
2024/03/03 01:24:18;;;;;;;;;4.50;4.50;;;;;;;;5091864;28;10680;-84
2024/03/03 01:26:45;;;;;;;;;2.75;2.75;;;;;;;;5091435;28;10747;-84
2024/03/03 01:29:19;;;;;;;;;3.00;3.00;;;;;;;;5088158;28;10833;-84
2024/03/03 01:31:48;;;;;;;;;2.75;2.75;;;;;;;;5094202;28;10557;-84
2024/03/03 01:34:15;;;;;;;;;2.25;2.25;;;;;;;;5093497;28;10635;-85
2024/03/03 01:36:42;;;;;;;;;2.00;2.00;;;;;;;;5090585;28;10521;-84
2024/03/03 01:39:12;;;;;;;;;2.00;2.00;;;;;;;;5074077;28;10527;-84
2024/03/03 01:41:44;;;;;;;;;1.00;1.00;;;;;;;;5087412;28;10527;-84
2024/03/03 01:44:11;;;;;;;;;1.00;1.00;;;;;;;;5089167;28;10501;-83
2024/03/03 01:46:43;;;;;;;;;2.75;1.00;;;;;;;;5089280;28;10454;-84
2024/03/03 01:49:16;;;;;;;;;1.00;1.00;;;;;;;;5096713;28;10571;-84
2024/03/03 01:51:46;;;;;;;;;1.75;1.75;;;;;;;;5110939;28;10521;-82
2024/03/03 01:54:13;;;;;;;;;1.00;1.00;;;;;;;;5089764;28;10704;-84
2024/03/03 01:56:44;;;;;;;;;1.25;1.25;;;;;;;;5088913;28;10495;-84
2024/03/03 01:59:12;;;;;;;;;2.25;1.00;;;;;;;;5088734;28;10509;-84
2024/03/03 02:01:40;;;;;;;;;1.50;1.50;;;;;;;;5088303;28;10388;-84
2024/03/03 02:04:07;;;;;;;;;1.00;1.00;;;;;;;;5078602;28;10527;-83
2024/03/03 02:06:36;;;;;;;;;2.25;2.25;;;;;;;;5089095;28;10459;-83
2024/03/03 02:09:06;;;;;;;;;2.75;2.75;;;;;;;;5082912;28;10513;-85
2024/03/03 02:11:35;;;;;;;;;0.50;0.50;;;;;;;;5096215;28;10425;-85
2024/03/03 02:14:02;;;;;;;;;1.50;1.50;;;;;;;;5094487;28;10502;-84
2024/03/03 02:16:30;;;;;;;;;2.00;2.00;;;;;;;;5103038;28;10430;-84
2024/03/03 02:18:57;;;;;;;;;1.75;1.75;;;;;;;;5098160;28;10473;-85
2024/03/03 02:21:26;;;;;;;;;1.00;1.00;;;;;;;;5093712;28;10578;-85
2024/03/03 02:23:53;;;;;;;;;1.75;1.75;;;;;;;;5095355;28;10459;-84
2024/03/03 02:26:22;;;;;;;;;4.00;3.00;;;;;;;;5094574;28;10684;-84
2024/03/03 02:28:51;;;;;;;;;1.75;1.00;;;;;;;;5090333;28;10529;-84
2024/03/03 02:31:18;;;;;;;;;1.75;1.75;;;;;;;;5102959;28;11145;-84
2024/03/03 02:33:46;;;;;;;;;2.00;2.00;;;;;;;;5093605;28;10389;-84
2024/03/03 02:36:13;;;;;;;;;2.00;2.00;;;;;;;;5090068;28;10533;-84
2024/03/03 02:38:44;;;;;;;;;3.00;1.00;;;;;;;;5087374;28;10642;-84
2024/03/03 02:41:11;;;;;;;;;2.50;1.00;;;;;;;;5091904;28;10585;-85
2024/03/03 02:43:38;;;;;;;;;1.00;1.00;;;;;;;;5092893;28;10373;-84
2024/03/03 02:46:06;;;;;;;;;2.00;2.00;;;;;;;;5092200;28;10471;-84
2024/03/03 02:48:35;;;;;;;;;1.50;1.50;;;;;;;;5092483;28;11383;-84
2024/03/03 02:51:05;;;;;;;;;2.00;2.00;;;;;;;;5093122;28;10776;-84
2024/03/03 02:53:32;;;;;;;;;3.00;3.00;;;;;;;;5092564;28;10615;-83
2024/03/03 02:56:01;;;;;;;;;2.00;2.00;;;;;;;;5094159;28;10697;-83
2024/03/03 02:58:28;;;;;;;;;2.25;2.25;;;;;;;;5096773;28;10462;-83
2024/03/03 03:00:56;;;;;;;;;2.25;2.25;;;;;;;;5097185;28;10527;-84
2024/03/03 03:03:23;;;;;;;;;2.00;2.00;;;;;;;;5098650;28;10443;-84
2024/03/03 03:05:50;;;;;;;;;1.75;1.75;;;;;;;;5098839;28;10547;-83
2024/03/03 03:08:18;;;;;;;;;3.75;2.00;;;;;;;;5092832;28;10661;-84
2024/03/03 03:10:45;;;;;;;;;2.00;2.00;;;;;;;;5098205;28;10585;-84
2024/03/03 03:13:13;;;;;;;;;2.00;2.00;;;;;;;;5100500;28;10695;-84
2024/03/03 03:15:41;;;;;;;;;2.00;2.00;;;;;;;;5100682;28;10560;-84
2024/03/03 03:18:08;;;;;;;;;2.25;2.25;;;;;;;;5093939;28;10602;-84
2024/03/03 03:20:35;;;;;;;;;2.25;2.25;;;;;;;;5096825;28;10504;-84
2024/03/03 03:23:06;;;;;;;;;4.00;2.50;;;;;;;;5089848;28;10602;-84
2024/03/03 03:25:34;;;;;;;;;2.00;2.00;;;;;;;;5087504;28;10531;-83
2024/03/03 03:28:01;;;;;;;;;3.75;3.75;;;;;;;;5089645;28;10551;-83
2024/03/03 03:30:30;;;;;;;;;7.50;5.25;;;;;;;;5090306;28;10604;-84
2024/03/03 03:32:57;;;;;;;;;4.00;4.00;;;;;;;;5091549;28;10788;-84
2024/03/03 03:35:25;;;;;;;;;8.25;4.00;;;;;;;;5093030;28;11287;-85
2024/03/03 03:37:53;;;;;;;;;4.00;4.00;;;;;;;;5096017;28;10754;-84
2024/03/03 03:40:21;;;;;;;;;6.00;6.00;;;;;;;;5091422;28;10745;-84
2024/03/03 03:42:48;;;;;;;;;5.75;5.75;;;;;;;;5090236;28;10793;-84
2024/03/03 03:45:16;;;;;;;;;7.25;7.25;;;;;;;;5089369;28;10862;-85
2024/03/03 03:47:45;;;;;;;;;8.75;8.75;;;;;;;;5100739;28;10969;-85
2024/03/03 03:50:12;;;;;;;;;12.00;9.25;;;;;;;;5095704;28;10831;-84
2024/03/03 03:52:39;;;;;;;;;11.75;10.00;;;;;;;;5100568;28;10951;-84
2024/03/03 03:55:08;;;;;;;;;14.25;13.75;;;;;;;;5091147;28;11002;-85
2024/03/03 03:57:38;;;;;;;;;13.00;13.00;;;;;;;;5091424;28;11006;-82
2024/03/03 04:00:10;;;;;;;;;12.75;12.75;;;;;;;;5090568;28;10907;-84
2024/03/03 04:02:37;;;;;;;;;14.25;13.25;;;;;;;;5091103;28;10908;-84
2024/03/03 04:05:10;;;;;;;;;12.50;12.50;;;;;;;;5095781;28;11009;-85
2024/03/03 04:07:37;;;;;;;;;5.00;5.00;;;;;;;;5096743;28;11166;-84
2024/03/03 04:10:09;;;;;;;;;11.00;11.00;;;;;;;;5097955;28;10953;-85
2024/03/03 04:12:36;;;;;;;;;12.00;12.00;;;;;;;;5108360;28;10972;-83
2024/03/03 04:15:07;;;;;;;;;11.75;11.75;;;;;;;;5091414;28;11008;-84
2024/03/03 04:17:36;;;;;;;;;11.50;11.50;;;;;;;;5091289;28;10761;-84
2024/03/03 04:20:06;;;;;;;;;15.50;12.50;;;;;;;;5081429;28;10940;-84
2024/03/03 04:22:35;;;;;;;;;12.00;12.00;;;;;;;;5090552;28;11009;-84
2024/03/03 04:25:04;;;;;;;;;6.25;6.00;;;;;;;;5090735;28;10848;-84
2024/03/03 04:27:34;;;;;;;;;14.00;14.00;;;;;;;;5095276;28;10734;-84
2024/03/03 04:30:01;;;;;;;;;15.50;13.25;;;;;;;;5084235;28;10961;-84
2024/03/03 04:32:28;;;;;;;;;15.00;15.00;;;;;;;;5103040;28;10976;-85
2024/03/03 04:34:55;;;;;;;;;11.50;11.50;;;;;;;;5112883;28;10948;-84
2024/03/03 04:37:23;;;;;;;;;15.00;15.00;;;;;;;;5100172;28;10895;-85
2024/03/03 04:39:54;;;;;;;;;17.00;14.50;;;;;;;;5092053;28;10941;-84
2024/03/03 04:42:24;;;;;;;;;12.50;12.50;;;;;;;;5091169;28;11096;-84
2024/03/03 04:44:52;;;;;;;;;21.50;18.50;;;;;;;;5093013;28;10971;-85
2024/03/03 04:47:19;;;;;;;;;11.00;11.00;;;;;;;;5076699;28;11083;-85
2024/03/03 04:49:46;;;;;;;;;14.00;13.75;;;;;;;;5097122;28;10832;-84
2024/03/03 04:52:14;;;;;;;;;19.00;10.75;;;;;;;;5097838;28;10983;-84
2024/03/03 04:54:41;;;;;;;;;14.25;14.00;;;;;;;;5097730;28;11780;-84
2024/03/03 04:57:10;;;;;;;;;18.75;17.50;;;;;;;;5097488;28;10907;-84
2024/03/03 04:59:37;;;;;;;;;11.25;9.75;;;;;;;;5097753;28;11150;-82
2024/03/03 05:02:05;;;;;;;;;15.00;15.00;;;;;;;;5095237;28;10948;-83
2024/03/03 05:04:32;;;;;;;;;15.50;15.50;;;;;;;;5089393;28;10961;-84
2024/03/03 05:07:00;;;;;;;;;22.25;22.25;;;;;;;;5093464;28;10958;-84
2024/03/03 05:09:27;;;;;;;;;16.50;16.50;;;;;;;;5095802;28;11158;-85
2024/03/03 05:11:54;;;;;;;;;27.00;24.50;;;;;;;;5100925;28;10795;-85
2024/03/03 05:14:23;;;;;;;;;17.75;12.25;;;;;;;;5105818;28;11795;-83
2024/03/03 05:16:50;;;;;;;;;20.75;17.75;;;;;;;;5089099;28;11149;-84
2024/03/03 05:19:19;;;;;;;;;23.50;20.50;;;;;;;;5074899;28;10870;-85
2024/03/03 05:21:48;;;;;;;;;18.25;18.25;;;;;;;;5095945;28;11996;-85
2024/03/03 05:24:17;;;;;;;;;21.50;18.75;;;;;;;;5091787;28;10995;-85
2024/03/03 05:26:44;;;;;;;;;22.50;20.50;;;;;;;;5088948;28;11074;-85
2024/03/03 05:29:12;;;;;;;;;24.25;24.25;;;;;;;;5089272;28;11871;-85
2024/03/03 05:31:43;;;;;;;;;19.75;19.75;;;;;;;;5088158;28;11070;-86
2024/03/03 05:34:12;;;;;;;;;21.25;20.50;;;;;;;;5090322;28;10950;-86
2024/03/03 05:36:41;;;;;;;;;25.50;18.50;;;;;;;;5098403;28;11150;-87
2024/03/03 05:39:08;;;;;;;;;12.75;8.00;;;;;;;;5090501;28;11121;-86
2024/03/03 05:41:35;;;;;;;;;20.50;20.50;;;;;;;;5096967;28;11082;-84
2024/03/03 05:44:05;;;;;;;;;20.75;15.50;;;;;;;;5091085;28;11145;-85
2024/03/03 05:46:32;;;;;;;;;20.00;20.00;;;;;;;;5094988;28;11124;-85
2024/03/03 05:49:01;;;;;;;;;21.50;20.75;;;;;;;;5088142;28;11174;-85
2024/03/03 05:51:29;;;;;;;;;17.25;15.25;;;;;;;;5089268;28;11289;-85
2024/03/03 05:53:56;;;;;;;;;21.75;21.75;;;;;;;;5089304;28;11256;-86
2024/03/03 05:56:24;;;;;;;;;21.75;19.75;;;;;;;;5089443;28;11457;-86
2024/03/03 05:58:51;;;;;;;;;22.00;20.25;;;;;;;;5089359;28;11257;-85
2024/03/03 06:01:19;;;;;;;;;16.50;14.25;;;;;;;;5088383;28;11040;-85
2024/03/03 06:03:46;;;;;;;;;13.50;13.50;;;;;;;;5089445;28;11074;-85
2024/03/03 06:06:15;;;;;;;;;20.00;15.75;;;;;;;;5089850;28;11173;-83
2024/03/03 06:08:42;;;;;;;;;19.00;13.00;;;;;;;;5100106;28;11009;-85
2024/03/03 06:11:10;;;;;;;;;22.00;18.00;;;;;;;;5101757;28;11020;-84
2024/03/03 06:13:37;;;;;;;;;15.50;14.00;;;;;;;;5088924;28;11118;-84
2024/03/03 06:16:09;;;;;;;;;10.25;9.00;;;;;;;;5088703;28;11087;-84
2024/03/03 06:18:42;;;;;;;;;15.75;13.75;;;;;;;;5089556;28;10859;-84
2024/03/03 06:21:09;;;;;;;;;17.25;15.00;;;;;;;;5089007;28;11002;-84
2024/03/03 06:23:41;;;;;;;;;14.75;14.75;;;;;;;;5088920;28;11043;-83
2024/03/03 06:26:08;;;;;;;;;12.50;11.75;;;;;;;;5099351;28;11784;-84
2024/03/03 06:28:38;;;;;;;;;14.75;13.00;;;;;;;;5089613;28;10944;-84
2024/03/03 06:31:07;;;;;;;;;14.50;14.00;;;;;;;;5088861;28;10967;-84
2024/03/03 06:33:37;;;;;;;;;5.50;4.75;;;;;;;;5089941;28;10930;-83
2024/03/03 06:36:05;;;;;;;;;10.25;10.25;;;;;;;;5091298;28;10805;-84
2024/03/03 06:38:32;;;;;;;;;14.75;13.00;;;;;;;;5093895;28;10998;-83
2024/03/03 06:41:06;;;;;;;;;12.75;11.00;;;;;;;;5095314;28;10940;-83
2024/03/03 06:43:33;;;;;;;;;11.75;11.25;;;;;;;;5093709;28;11008;-82
2024/03/03 06:46:01;;;;;;;;;17.75;13.50;;;;;;;;5094921;28;11033;-84
2024/03/03 06:48:30;;;;;;;;;14.00;14.00;;;;;;;;5094081;28;11187;-82
2024/03/03 06:50:58;;;;;;;;;18.75;15.75;;;;;;;;5094030;28;11095;-84
2024/03/03 06:53:25;;;;;;;;;20.50;18.50;;;;;;;;5089408;28;11095;-84
2024/03/03 06:55:55;;;;;;;;;17.00;16.75;;;;;;;;5089691;28;11275;-85
2024/03/03 06:58:26;;;;;;;;;24.25;19.75;;;;;;;;5088950;28;11965;-77
2024/03/03 07:00:53;;;;;;;;;19.50;19.50;;;;;;;;5080899;28;11183;-77
2024/03/03 07:03:38;;;;;;;;;16.50;16.00;;;;;;;;5095288;28;11518;-78
2024/03/03 07:06:06;;;;;;;;;20.00;18.50;;;;;;;;5093532;28;11536;-75
2024/03/03 07:08:33;;;;;;;;;14.50;13.00;;;;;;;;5080287;28;11198;-77
2024/03/03 07:11:01;;;;;;;;;14.50;13.75;;;;;;;;5091110;28;12085;-75
2024/03/03 07:13:29;;;;;;;;;10.50;10.50;;;;;;;;5091993;28;11143;-78
2024/03/03 07:15:56;;;;;;;;;17.00;14.50;;;;;;;;5093780;28;11077;-75
2024/03/03 07:18:23;;;;;;;;;10.50;10.50;;;;;;;;5089489;28;11222;-74
2024/03/03 07:20:51;;;;;;;;;11.50;10.75;;;;;;;;5091591;28;11086;-78
2024/03/03 07:23:18;;;;;;;;;9.50;9.00;;;;;;;;5090917;28;10978;-77
2024/03/03 07:25:45;;;;;;;;;11.25;11.00;;;;;;;;5090635;28;10980;-76
2024/03/03 07:28:15;;;;;;;;;12.75;8.75;;;;;;;;5090501;28;10987;-77
2024/03/03 07:30:44;;;;;;;;;14.25;14.25;;;;;;;;5086799;28;11770;-77
2024/03/03 07:33:11;;;;;;;;;10.00;10.00;;;;;;;;5092421;28;11118;-82
2024/03/03 07:35:40;;;;;;;;;9.25;8.75;;;;;;;;5090684;28;11057;-82
2024/03/03 07:38:14;;;;;;;;;9.25;9.25;;;;;;;;5093241;28;11647;-75
2024/03/03 07:40:44;;;;;;;;;11.00;11.00;;;;;;;;5091266;28;10978;-77
2024/03/03 07:43:12;;;;;;;;;12.25;8.00;;;;;;;;5091806;28;11104;-84
2024/03/03 07:45:39;;;;;;;;;9.50;8.00;;;;;;;;5088845;28;10966;-75
2024/03/03 07:48:08;;;;;;;;;10.00;8.75;;;;;;;;5091247;28;10941;-75
2024/03/03 07:50:38;;;;;;;;;8.75;8.75;;;;;;;;5093414;28;11065;-80
2024/03/03 07:53:05;;;;;;;;;11.50;9.00;;;;;;;;5094281;28;11005;-75
2024/03/03 07:55:33;;;;;;;;;9.25;9.00;;;;;;;;5090599;28;10988;-78
2024/03/03 07:58:00;;;;;;;;;9.00;9.00;;;;;;;;5089483;28;11093;-77
2024/03/03 08:00:33;;;;;;;;;11.00;9.00;;;;;;;;5089387;28;10844;-76
2024/03/03 08:03:01;;;;;;;;;11.00;11.00;;;;;;;;5090049;28;11090;-76
2024/03/03 08:05:32;;;;;;;;;14.00;11.50;;;;;;;;5089820;28;10983;-76
2024/03/03 08:07:59;;;;;;;;;15.25;12.50;;;;;;;;5089423;28;11864;-79
2024/03/03 08:10:26;;;;;;;;;9.00;9.00;;;;;;;;5090212;28;11045;-80
2024/03/03 08:12:54;;;;;;;;;11.25;11.25;;;;;;;;5089512;28;11018;-77
2024/03/03 08:15:22;;;;;;;;;17.75;16.75;;;;;;;;5090260;28;10962;-75
2024/03/03 08:17:49;;;;;;;;;13.50;13.50;;;;;;;;5089329;28;10929;-77
2024/03/03 08:20:16;;;;;;;;;21.50;18.00;;;;;;;;5100970;28;11039;-77
2024/03/03 08:22:45;;;;;;;;;13.25;11.00;;;;;;;;5092745;28;11171;-79
2024/03/03 08:25:14;;;;;;;;;16.25;16.25;;;;;;;;5093044;28;10954;-82
2024/03/03 08:27:41;;;;;;;;;10.00;10.00;;;;;;;;5092373;28;10984;-77
2024/03/03 08:30:11;;;;;;;;;14.25;14.25;;;;;;;;5093064;28;11699;-79
2024/03/03 08:32:39;;;;;;;;;12.00;10.50;;;;;;;;5092845;28;11851;-77
2024/03/03 08:35:07;;;;;;;;;15.00;13.00;;;;;;;;5095728;28;10871;-79
2024/03/03 08:37:38;;;;;;;;;12.25;12.25;;;;;;;;5096484;28;10862;-77
2024/03/03 08:40:09;;;;;;;;;16.75;13.50;;;;;;;;5093856;28;10809;-75
2024/03/03 08:42:36;;;;;;;;;11.75;10.75;;;;;;;;5077697;28;10870;-78
2024/03/03 08:45:06;;;;;;;;;13.00;13.00;;;;;;;;5088275;28;11664;-76
2024/03/03 08:47:33;;;;;;;;;10.00;10.00;;;;;;;;5091136;28;10998;-80
2024/03/03 08:50:00;;;;;;;;;12.25;12.25;;;;;;;;5090299;28;11677;-76
2024/03/03 08:52:33;;;;;;;;;14.75;13.00;;;;;;;;5088427;28;10868;-78
2024/03/03 08:55:01;;;;;;;;;7.50;7.00;;;;;;;;5088351;28;10889;-76
2024/03/03 08:57:32;;;;;;;;;10.50;10.50;;;;;;;;5088543;28;11456;-76
2024/03/03 09:00:03;;;;;;;;;10.25;10.25;;;;;;;;5088524;28;10768;-76
2024/03/03 09:02:33;;;;;;;;;10.50;9.00;;;;;;;;5089233;28;10663;-74
2024/03/03 09:05:01;;;;;;;;;9.50;9.50;;;;;;;;5088498;28;10879;-77
2024/03/03 09:07:30;;;;;;;;;7.00;4.75;;;;;;;;5088788;28;10602;-76
2024/03/03 09:09:58;;;;;;;;;10.25;8.25;;;;;;;;5088638;28;10602;-77
2024/03/03 09:12:26;;;;;;;;;9.25;8.25;;;;;;;;5089659;28;10605;-77
2024/03/03 09:14:57;;;;;;;;;11.00;11.00;;;;;;;;5088920;28;10859;-74
2024/03/03 09:17:24;;;;;;;;;11.25;11.25;;;;;;;;5089507;28;10757;-75
2024/03/03 09:19:53;;;;;;;;;13.50;13.00;;;;;;;;5088574;28;11517;-76
2024/03/03 09:22:22;;;;;;;;;12.50;10.50;;;;;;;;5088350;28;10800;-78
2024/03/03 09:24:49;;;;;;;;;8.00;8.00;;;;;;;;5087104;28;11501;-74
2024/03/03 09:27:17;;;;;;;;;7.25;7.25;;;;;;;;5087744;28;10654;-75
2024/03/03 09:29:44;;;;;;;;;9.00;8.50;;;;;;;;5088540;28;10701;-77
2024/03/03 09:32:16;;;;;;;;;3.00;3.00;;;;;;;;5087351;28;10402;-75
2024/03/03 09:34:44;;;;;;;;;4.25;3.50;;;;;;;;5088226;28;10558;-76
2024/03/03 09:37:13;;;;;;;;;8.00;8.00;;;;;;;;5087912;28;10610;-75
2024/03/03 09:39:40;;;;;;;;;4.00;4.00;;;;;;;;5088213;28;10464;-75
2024/03/03 09:42:08;;;;;;;;;8.50;4.00;;;;;;;;5087972;28;10521;-79
2024/03/03 09:44:41;;;;;;;;;3.00;3.00;;;;;;;;5088788;28;10431;-76
2024/03/03 09:47:09;;;;;;;;;9.00;6.25;;;;;;;;5092772;28;10395;-77
2024/03/03 09:49:39;;;;;;;;;9.00;5.75;;;;;;;;5095811;28;10399;-79
2024/03/03 09:52:11;;;;;;;;;12.00;12.00;;;;;;;;5087936;28;10387;-76
2024/03/03 09:54:39;;;;;;;;;16.50;15.75;;;;;;;;5088332;28;10637;-76
2024/03/03 09:57:12;;;;;;;;;11.00;10.50;;;;;;;;5088307;28;10755;-76
2024/03/03 09:59:40;;;;;;;;;18.00;18.00;;;;;;;;5089245;28;10637;-75
2024/03/03 10:02:11;;;;;;;;;9.00;9.00;;;;;;;;5090595;28;10780;-75
2024/03/03 10:04:41;;;;;;;;;5.25;5.25;;;;;;;;5086429;28;10595;-78
2024/03/03 10:07:12;;;;;;;;;14.75;14.75;;;;;;;;5086152;28;10294;-76
2024/03/03 10:09:40;;;;;;;;;5.75;5.75;;;;;;;;5088585;28;11372;-77
2024/03/03 10:12:09;;;;;;;;;9.00;6.00;;;;;;;;5088753;28;10296;-79
2024/03/03 10:14:37;;;;;;;;;13.50;11.25;;;;;;;;5091495;28;10402;-76
2024/03/03 10:17:05;;;;;;;;;23.50;21.00;;;;;;;;5091327;28;10642;-79
2024/03/03 10:19:34;;;;;;;;;4.75;4.75;;;;;;;;5090533;28;10688;-81
2024/03/03 10:22:07;;;;;;;;;3.00;1.50;;;;;;;;5092031;28;10218;-77
2024/03/03 10:24:36;;;;;;;;;3.50;3.50;;;;;;;;5089264;28;10139;-77
2024/03/03 10:27:07;;;;;;;;;9.00;9.00;;;;;;;;5092817;28;10141;-77
2024/03/03 10:29:37;;;;;;;;;13.50;13.00;;;;;;;;5092023;28;10372;-75
2024/03/03 10:32:10;;;;;;;;;18.00;18.00;;;;;;;;5089086;28;11289;-75
2024/03/03 10:34:37;;;;;;;;;11.00;10.75;;;;;;;;5092742;28;10834;-81
2024/03/03 10:37:11;;;;;;;;;5.00;5.00;;;;;;;;5094563;28;10581;-77
2024/03/03 10:39:39;;;;;;;;;5.00;5.00;;;;;;;;5092752;28;10303;-77
2024/03/03 10:42:09;;;;;;;;;3.75;3.75;;;;;;;;5092488;28;10232;-79
2024/03/03 10:44:36;;;;;;;;;7.50;5.50;;;;;;;;5091907;28;9943;-80
2024/03/03 10:47:06;;;;;;;;;4.75;4.75;;;;;;;;5090340;28;10148;-77
2024/03/03 10:49:36;;;;;;;;;4.00;3.75;;;;;;;;5092329;28;9949;-75
2024/03/03 10:52:08;;;;;;;;;3.25;3.25;;;;;;;;5091097;28;10009;-75
2024/03/03 10:54:38;;;;;;;;;6.50;6.00;;;;;;;;5092044;28;10014;-77
2024/03/03 10:57:06;;;;;;;;;4.00;4.00;;;;;;;;5091600;28;10166;-77
2024/03/03 10:59:36;;;;;;;;;3.50;3.50;;;;;;;;5092328;28;10114;-74
2024/03/03 11:02:04;;;;;;;;;10.75;9.00;;;;;;;;5091692;28;9873;-77
2024/03/03 11:04:32;;;;;;;;;3.75;3.75;;;;;;;;5091746;28;10413;-77
2024/03/03 11:07:01;;;;;;;;;5.75;3.00;;;;;;;;5091081;28;9943;-75
2024/03/03 11:09:31;;;;;;;;;4.00;4.00;;;;;;;;5090924;28;10018;-81
2024/03/03 11:12:05;;;;;;;;;5.00;3.75;;;;;;;;5090724;28;10022;-74
2024/03/03 11:14:33;;;;;;;;;7.00;3.00;;;;;;;;5091571;28;10048;-81
2024/03/03 11:17:04;;;;;;;;;1.50;1.50;;;;;;;;5090477;28;9922;-83
2024/03/03 11:19:38;;;;;;;;;2.00;2.00;;;;;;;;5091790;28;9850;-82
2024/03/03 11:22:10;;;;;;;;;2.00;2.00;;;;;;;;5091675;28;10658;-77
2024/03/03 11:24:41;;;;;;;;;1.00;1.00;;;;;;;;5090922;28;9862;-77
2024/03/03 11:27:15;;;;;;;;;11.25;10.00;;;;;;;;5091047;28;9861;-77
2024/03/03 11:29:44;;;;;;;;;5.00;3.25;;;;;;;;5090802;28;10097;-78
2024/03/03 11:32:12;;;;;;;;;4.00;4.00;;;;;;;;5090382;28;9725;-75
2024/03/03 11:34:41;;;;;;;;;5.75;5.75;;;;;;;;5090934;28;10662;-76
2024/03/03 11:37:12;;;;;;;;;3.00;3.00;;;;;;;;5090731;28;9844;-79
2024/03/03 11:39:56;;;;;;;;;14.25;9.25;;;;;;;;5091320;28;9597;-85
2024/03/03 11:42:39;;;;;;;;;15.75;13.75;;;;;;;;5090040;28;9940;-78
2024/03/03 11:45:08;;;;;;;;;12.00;12.00;;;;;;;;5090346;28;10011;-73
2024/03/03 11:47:45;;;;;;;;;10.50;10.50;;;;;;;;5090381;28;9815;-80
2024/03/03 11:50:20;;;;;;;;;4.00;4.00;;;;;;;;5090785;28;9795;-75
2024/03/03 11:52:49;;;;;;;;;4.00;4.00;;;;;;;;5090448;28;9630;-75
2024/03/03 11:55:22;;;;;;;;;7.00;7.00;;;;;;;;5090000;28;9400;-74
2024/03/03 11:57:51;;;;;;;;;3.00;3.00;;;;;;;;5090373;28;9714;-80
2024/03/03 12:00:24;;;;;;;;;11.25;6.50;;;;;;;;5090897;28;9401;-79
2024/03/03 12:02:52;;;;;;;;;17.50;17.00;;;;;;;;5094176;28;9540;-84
2024/03/03 12:05:19;;;;;;;;;8.50;8.50;;;;;;;;5095667;28;9792;-77
2024/03/03 12:07:51;;;;;;;;;14.25;14.25;;;;;;;;5090954;28;9603;-79
2024/03/03 12:10:20;;;;;;;;;25.25;24.75;;;;;;;;5095515;28;10040;-79
2024/03/03 12:12:49;;;;;;;;;15.25;14.75;;;;;;;;5095354;28;10278;-78
2024/03/03 12:15:19;;;;;;;;;5.00;5.00;;;;;;;;5094750;28;9985;-80
2024/03/03 12:17:50;;;;;;;;;12.00;10.75;;;;;;;;5094721;28;9559;-75
2024/03/03 12:20:18;;;;;;;;;3.50;3.50;;;;;;;;5091849;28;9860;-75
2024/03/03 12:22:48;;;;;;;;;4.75;3.75;;;;;;;;5089785;28;10172;-78
2024/03/03 12:25:19;;;;;;;;;5.50;4.50;;;;;;;;5090333;28;9599;-76
2024/03/03 12:27:53;;;;;;;;;5.25;5.25;;;;;;;;5089641;28;9627;-78
2024/03/03 12:30:22;;;;;;;;;6.75;6.75;;;;;;;;5089531;28;9655;-74
2024/03/03 12:32:51;;;;;;;;;28.75;27.25;;;;;;;;5077527;28;9600;-76
2024/03/03 12:35:18;;;;;;;;;20.50;19.50;;;;;;;;5089384;28;11191;-77
2024/03/03 12:37:47;;;;;;;;;12.00;12.00;;;;;;;;5089670;28;9848;-75
2024/03/03 12:40:15;;;;;;;;;30.25;29.50;;;;;;;;5091185;28;9849;-73
2024/03/03 12:42:43;;;;;;;;;14.00;14.00;;;;;;;;5091640;28;10347;-75
2024/03/03 12:45:15;;;;;;;;;17.50;16.25;;;;;;;;5087651;28;9888;-76
2024/03/03 12:47:44;;;;;;;;;16.50;16.50;;;;;;;;5089397;28;9913;-77
2024/03/03 12:50:15;;;;;;;;;20.50;15.25;;;;;;;;5088856;28;9932;-75
2024/03/03 12:52:42;;;;;;;;;21.75;21.75;;;;;;;;5088586;28;10102;-75
2024/03/03 12:55:10;;;;;;;;;23.25;23.25;;;;;;;;5088145;28;10174;-74
2024/03/03 12:57:38;;;;;;;;;30.25;30.00;;;;;;;;5088396;28;10079;-78
2024/03/03 13:00:07;;;;;;;;;14.50;14.00;;;;;;;;5087399;28;11085;-78
2024/03/03 13:02:38;;;;;;;;;11.50;10.25;;;;;;;;5089216;28;10244;-77
2024/03/03 13:05:06;;;;;;;;;24.75;23.00;;;;;;;;5089370;28;9619;-79
2024/03/03 13:07:48;;;;;;;;;19.50;17.25;;;;;;;;5090881;28;10180;-76
2024/03/03 13:10:16;;;;;;;;;15.75;14.50;;;;;;;;5078911;28;10713;-77
2024/03/03 13:12:44;;;;;;;;;20.50;16.50;;;;;;;;5090765;28;9918;-77
2024/03/03 13:15:11;;;;;;;;;8.00;7.25;;;;;;;;5092771;28;9767;-82
2024/03/03 13:17:40;;;;;;;;;3.00;3.00;;;;;;;;5089702;28;9681;-77
2024/03/03 13:20:13;;;;;;;;;5.00;5.00;;;;;;;;5089535;28;9400;-78
2024/03/03 13:22:41;;;;;;;;;2.00;2.00;;;;;;;;5089603;28;9281;-81
2024/03/03 13:25:09;;;;;;;;;3.67;3.00;;;;;;;;5089774;28;9306;-84
2024/03/03 13:27:37;;;;;;;;;1.67;1.67;;;;;;;;5089022;28;9321;-82
2024/03/03 13:30:08;;;;;;;;;4.00;2.67;;;;;;;;5088808;28;9397;-81
2024/03/03 13:32:35;;;;;;;;;5.00;4.00;;;;;;;;5089262;28;9304;-82
2024/03/03 13:35:04;;;;;;;;;5.25;4.75;;;;;;;;5090690;28;9394;-82
2024/03/03 13:37:32;;;;;;;;;2.75;2.75;;;;;;;;5101754;28;9448;-85
2024/03/03 13:40:02;;;;;;;;;3.75;2.25;;;;;;;;5090198;28;9683;-80
2024/03/03 13:42:29;;;;;;;;;20.00;17.50;;;;;;;;5088862;28;10240;-79
2024/03/03 13:44:56;;;;;;;;;3.50;3.50;;;;;;;;5090041;28;9877;-87
2024/03/03 13:47:24;;;;;;;;;3.25;3.25;;;;;;;;5090217;28;9543;-80
2024/03/03 13:49:51;;;;;;;;;8.00;8.00;;;;;;;;5092049;28;9567;-84
2024/03/03 13:52:19;;;;;;;;;5.00;3.25;;;;;;;;5092747;28;9890;-84
2024/03/03 13:54:49;;;;;;;;;8.00;6.00;;;;;;;;5093428;28;9543;-87
2024/03/03 13:57:16;;;;;;;;;3.00;3.00;;;;;;;;5095004;28;9697;-85
2024/03/03 13:59:43;;;;;;;;;2.00;2.00;;;;;;;;5094457;28;9377;-84
2024/03/03 14:02:11;;;;;;;;;4.50;4.50;;;;;;;;5094741;28;9333;-82
2024/03/03 14:04:38;;;;;;;;;7.00;7.00;;;;;;;;5092830;28;9573;-80
2024/03/03 14:07:07;;;;;;;;;10.50;10.50;;;;;;;;5095076;28;9704;-78
2024/03/03 14:09:39;;;;;;;;;3.00;3.00;;;;;;;;5088675;28;10463;-77
2024/03/03 14:12:08;;;;;;;;;8.50;8.50;;;;;;;;5089383;28;9619;-83
2024/03/03 14:14:36;;;;;;;;;4.00;4.00;;;;;;;;5089911;28;9720;-85
2024/03/03 14:17:05;;;;;;;;;4.00;4.00;;;;;;;;5090370;28;9573;-79
2024/03/03 14:19:38;;;;;;;;;4.25;4.25;;;;;;;;5089304;28;9540;-77
2024/03/03 14:22:05;;;;;;;;;6.75;5.00;;;;;;;;5088209;28;10385;-78
2024/03/03 14:24:32;;;;;;;;;4.00;4.00;;;;;;;;5087489;28;9660;-77
2024/03/03 14:27:04;;;;;;;;;5.00;5.00;;;;;;;;5087578;28;9464;-76
2024/03/03 14:29:32;;;;;;;;;11.00;8.50;;;;;;;;5088174;28;9392;-78
2024/03/03 14:31:59;;;;;;;;;22.00;18.00;;;;;;;;5087338;28;9579;-80
2024/03/03 14:34:26;;;;;;;;;3.33;3.33;;;;;;;;5088451;28;10121;-79
2024/03/03 14:36:53;;;;;;;;;8.00;8.00;;;;;;;;5089913;28;9333;-86
2024/03/03 14:39:28;;;;;;;;;8.00;8.00;;;;;;;;5089544;28;9392;-78
2024/03/03 14:41:55;;;;;;;;;16.75;15.50;;;;;;;;5086317;28;9396;-80